Time;durP1;ratioP1;P1;durP2;ratioP2;P2;SDS_P1;SDS_P2;PMS_P1;PMS_P2;Temp;Humidity;BMP_temperature;BMP_pressure;BME280_temperature;BME280_humidity;BME280_pressure;Samples;Min_cycle;Max_cycle;Signal;HPM_P1;HPM_P2
2024/03/22 00:00:00;;;;;;;11.60;10.00;;;;;;;10.47;100.00;100661.05;177793;1255;46059;-81
2024/03/22 00:04:03;;;;;;;15.20;11.50;;;;;;;10.37;100.00;100663.15;177879;1256;44139;-80
2024/03/22 00:08:09;;;;;;;12.90;9.90;;;;;;;10.30;100.00;100661.05;177890;1256;46218;-80
2024/03/22 00:12:11;;;;;;;14.10;10.40;;;;;;;10.17;100.00;100659.33;177824;1259;46128;-80
2024/03/22 00:16:14;;;;;;;11.80;9.30;;;;;;;10.05;100.00;100655.78;177676;1256;56930;-80
2024/03/22 00:20:17;;;;;;;13.80;9.30;;;;;;;9.89;100.00;100658.73;177957;1255;46022;-80
2024/03/22 00:24:20;;;;;;;14.50;8.90;;;;;;;9.77;100.00;100662.03;178980;1256;46092;-80
2024/03/22 00:28:22;;;;;;;12.10;8.20;;;;;;;9.71;100.00;100661.20;177514;1259;46144;-80
2024/03/22 00:32:25;;;;;;;10.50;8.00;;;;;;;9.74;100.00;100662.65;177872;1255;46089;-80
2024/03/22 00:36:28;;;;;;;12.40;8.70;;;;;;;9.78;100.00;100658.22;177729;1256;58224;-80
2024/03/22 00:40:31;;;;;;;9.80;7.40;;;;;;;9.84;100.00;100660.80;178039;1255;46080;-80
2024/03/22 00:44:33;;;;;;;15.70;9.10;;;;;;;9.92;100.00;100657.45;180293;1256;44160;-80
2024/03/22 00:48:36;;;;;;;9.50;7.60;;;;;;;9.96;100.00;100655.05;178729;1256;45934;-81
2024/03/22 00:52:39;;;;;;;9.80;6.40;;;;;;;9.96;100.00;100654.48;178967;1255;46125;-81
2024/03/22 00:56:42;;;;;;;14.70;9.30;;;;;;;9.92;100.00;100654.62;179937;1256;59390;-80
2024/03/22 01:00:46;;;;;;;9.80;8.10;;;;;;;9.89;100.00;100655.55;178304;1256;46072;-80
2024/03/22 01:04:49;;;;;;;12.00;7.80;;;;;;;9.83;100.00;100649.92;179692;1255;46052;-80
2024/03/22 01:08:52;;;;;;;12.10;8.90;;;;;;;9.81;100.00;100647.24;177826;1258;46119;-80
2024/03/22 01:12:54;;;;;;;10.70;9.00;;;;;;;9.78;100.00;100643.89;178129;1256;46028;-80
2024/03/22 01:16:57;;;;;;;12.40;10.10;;;;;;;9.83;100.00;100631.88;177092;1255;60414;-80
2024/03/22 01:21:00;;;;;;;16.80;9.90;;;;;;;9.83;100.00;100628.33;177188;1259;46145;-80
2024/03/22 01:25:03;;;;;;;13.50;11.10;;;;;;;9.84;100.00;100624.14;179073;1259;46060;-80
2024/03/22 01:29:06;;;;;;;14.00;9.20;;;;;;;9.84;100.00;100622.77;177042;1259;46255;-80
2024/03/22 01:33:08;;;;;;;15.40;10.40;;;;;;;9.83;100.00;100621.21;177440;1255;44376;-80
2024/03/22 01:37:11;;;;;;;14.30;11.50;;;;;;;9.82;100.00;100614.94;177331;1256;59773;-80
2024/03/22 01:41:14;;;;;;;15.00;10.70;;;;;;;9.81;100.00;100616.03;177133;1256;46087;-80
2024/03/22 01:45:17;;;;;;;15.60;10.80;;;;;;;9.77;100.00;100622.55;179037;1256;45940;-81
2024/03/22 01:49:21;;;;;;;14.60;10.40;;;;;;;9.73;100.00;100620.19;178420;1256;46068;-80
2024/03/22 01:53:24;;;;;;;16.60;9.70;;;;;;;9.72;100.00;100621.48;178075;1255;46122;-80
2024/03/22 01:57:27;;;;;;;19.00;13.10;;;;;;;9.66;100.00;100614.71;179083;1256;58352;-80
2024/03/22 02:01:30;;;;;;;18.80;13.50;;;;;;;9.66;100.00;100607.25;178504;1255;46106;-80
2024/03/22 02:05:33;;;;;;;22.70;15.50;;;;;;;9.67;100.00;100608.55;178904;1255;43992;-80
2024/03/22 02:09:37;;;;;;;25.90;15.10;;;;;;;9.67;100.00;100613.34;179386;1257;45596;-81
2024/03/22 02:13:40;;;;;;;21.10;15.00;;;;;;;9.68;100.00;100611.54;180033;1256;44063;-80
2024/03/22 02:17:43;;;;;;;22.50;11.90;;;;;;;9.67;100.00;100611.96;177632;1255;59971;-79
2024/03/22 02:21:45;;;;;;;21.90;14.70;;;;;;;9.67;100.00;100615.11;178801;1255;46004;-81
2024/03/22 02:25:48;;;;;;;23.80;15.60;;;;;;;9.63;100.00;100607.26;178951;1255;46158;-81
2024/03/22 02:29:51;;;;;;;20.90;14.70;;;;;;;9.59;100.00;100605.78;179102;1256;44736;-80
2024/03/22 02:33:54;;;;;;;23.00;14.60;;;;;;;9.55;100.00;100609.48;178710;1255;44847;-80
2024/03/22 02:37:58;;;;;;;23.00;14.70;;;;;;;9.55;100.00;100613.48;178221;1256;59564;-80
2024/03/22 02:42:01;;;;;;;28.00;16.30;;;;;;;9.55;100.00;100606.77;177327;1256;48345;-80
2024/03/22 02:46:04;;;;;;;27.70;15.10;;;;;;;9.58;100.00;100600.36;176975;1255;46143;-80
2024/03/22 02:50:07;;;;;;;22.70;14.50;;;;;;;9.57;100.00;100598.85;178767;1256;46001;-81
2024/03/22 02:54:10;;;;;;;22.50;15.50;;;;;;;9.55;100.00;100602.89;178037;1256;46036;-81
2024/03/22 02:58:13;;;;;;;18.60;14.50;;;;;;;9.54;100.00;100604.92;177917;1256;59614;-82
2024/03/22 03:02:16;;;;;;;22.60;16.90;;;;;;;9.55;100.00;100597.61;177886;1255;46110;-81
2024/03/22 03:06:19;;;;;;;21.40;13.40;;;;;;;9.54;100.00;100591.79;177251;1255;46160;-80
2024/03/22 03:10:22;;;;;;;18.70;15.30;;;;;;;9.53;100.00;100589.25;178421;1256;46032;-81
2024/03/22 03:14:25;;;;;;;16.90;11.70;;;;;;;9.50;100.00;100582.70;178628;1256;45988;-81
2024/03/22 03:18:28;;;;;;;19.00;14.10;;;;;;;9.44;100.00;100583.48;178911;1256;57912;-82
2024/03/22 03:22:31;;;;;;;20.50;11.80;;;;;;;9.43;100.00;100572.95;177227;1256;46360;-81
2024/03/22 03:26:33;;;;;;;20.30;13.50;;;;;;;9.43;100.00;100568.70;177292;1259;46088;-81
2024/03/22 03:30:36;;;;;;;20.50;14.20;;;;;;;9.40;100.00;100560.42;177276;1255;46048;-81
2024/03/22 03:34:39;;;;;;;18.60;11.80;;;;;;;9.43;100.00;100553.28;178375;1255;45901;-80
2024/03/22 03:38:42;;;;;;;18.20;13.40;;;;;;;9.45;100.00;100554.56;178583;1255;58284;-80
2024/03/22 03:42:45;;;;;;;17.90;11.30;;;;;;;9.41;100.00;100547.77;177755;1262;46221;-79
2024/03/22 03:46:47;;;;;;;18.90;12.00;;;;;;;9.38;100.00;100550.33;177323;1259;46137;-80
2024/03/22 03:50:52;;;;;;;19.00;11.60;;;;;;;9.37;100.00;100546.13;178165;1256;45959;-80
2024/03/22 03:54:55;;;;;;;17.00;12.30;;;;;;;9.34;100.00;100544.56;177709;1256;46041;-81
2024/03/22 03:58:58;;;;;;;15.10;11.00;;;;;;;9.30;100.00;100548.18;178613;1256;57357;-81
2024/03/22 04:03:01;;;;;;;16.10;10.80;;;;;;;9.27;100.00;100554.98;177788;1255;46217;-80
2024/03/22 04:07:04;;;;;;;16.60;12.90;;;;;;;9.22;100.00;100554.46;177716;1256;49292;-80
2024/03/22 04:11:06;;;;;;;15.70;11.50;;;;;;;9.18;100.00;100552.77;177655;1256;46468;-81
2024/03/22 04:15:10;;;;;;;17.60;12.60;;;;;;;9.13;100.00;100554.42;178011;1256;46097;-80
2024/03/22 04:19:13;;;;;;;18.60;12.50;;;;;;;9.06;100.00;100554.01;178025;1256;59540;-84
2024/03/22 04:23:15;;;;;;;16.10;12.60;;;;;;;8.86;100.00;100558.73;177548;1255;46221;-84
2024/03/22 04:27:18;;;;;;;16.60;11.00;;;;;;;8.75;100.00;100564.84;178281;1255;45940;-85
2024/03/22 04:31:21;;;;;;;14.60;9.70;;;;;;;8.69;100.00;100559.21;179303;1256;46074;-84
2024/03/22 04:35:24;;;;;;;15.90;12.00;;;;;;;8.62;100.00;100559.48;178190;1256;46121;-84
2024/03/22 04:39:27;;;;;;;18.50;11.60;;;;;;;8.54;100.00;100563.05;179033;1259;58247;-84
2024/03/22 04:43:30;;;;;;;16.40;10.60;;;;;;;8.51;100.00;100557.40;177874;1256;46147;-82
2024/03/22 04:47:32;;;;;;;17.80;10.70;;;;;;;8.49;100.00;100558.63;177815;1256;46204;-83
2024/03/22 04:51:35;;;;;;;18.70;13.40;;;;;;;8.42;100.00;100557.07;177684;1256;46032;-81
2024/03/22 04:55:38;;;;;;;19.50;12.40;;;;;;;8.42;100.00;100562.21;178084;1256;46084;-83
2024/03/22 04:59:41;;;;;;;21.20;16.30;;;;;;;8.42;100.00;100564.34;178316;1256;57302;-82
2024/03/22 05:03:44;;;;;;;19.80;13.80;;;;;;;8.45;100.00;100569.63;178555;1256;46098;-83
2024/03/22 05:07:47;;;;;;;19.00;15.60;;;;;;;8.44;100.00;100569.73;179424;1256;46194;-82
2024/03/22 05:11:50;;;;;;;22.30;14.50;;;;;;;8.42;100.00;100574.10;178230;1257;46144;-82
2024/03/22 05:15:53;;;;;;;18.10;13.90;;;;;;;8.41;100.00;100578.36;178920;1256;46046;-82
2024/03/22 05:19:56;;;;;;;19.50;13.00;;;;;;;8.36;100.00;100583.90;179198;1256;59820;-84
2024/03/22 05:23:59;;;;;;;21.40;14.00;;;;;;;8.33;100.00;100584.59;179174;1255;46001;-83
2024/03/22 05:28:02;;;;;;;19.60;14.10;;;;;;;8.33;100.00;100584.04;179247;1257;44763;-82
2024/03/22 05:32:05;;;;;;;14.50;10.70;;;;;;;8.31;100.00;100590.56;178041;1259;44275;-82
2024/03/22 05:36:08;;;;;;;23.40;14.80;;;;;;;8.31;100.00;100589.86;178564;1256;46079;-83
2024/03/22 05:40:12;;;;;;;17.80;12.60;;;;;;;8.30;100.00;100586.17;178302;1256;58322;-81
2024/03/22 05:44:15;;;;;;;21.20;11.30;;;;;;;8.32;100.00;100585.40;178555;1255;46054;-83
2024/03/22 05:48:17;;;;;;;15.30;11.80;;;;;;;8.31;100.00;100582.12;178228;1259;46000;-83
2024/03/22 05:52:21;;;;;;;25.20;14.60;;;;;;;8.36;100.00;100571.13;178296;1256;46006;-81
2024/03/22 05:56:24;;;;;;;23.70;15.50;;;;;;;8.38;100.00;100576.29;179181;1256;46227;-83
2024/03/22 06:00:26;;;;;;;22.00;15.70;;;;;;;8.45;100.00;100574.81;178345;1256;57976;-82
2024/03/22 06:04:29;;;;;;;26.80;16.00;;;;;;;8.45;100.00;100569.46;178795;1256;45959;-83
2024/03/22 06:08:34;;;;;;;22.10;14.00;;;;;;;8.51;100.00;100572.30;176765;1256;46076;-83
2024/03/22 06:12:37;;;;;;;19.20;14.60;;;;;;;8.54;100.00;100569.77;177432;1259;46041;-84
2024/03/22 06:16:40;;;;;;;29.00;18.90;;;;;;;8.58;100.00;100574.80;177887;1259;46115;-82
2024/03/22 06:20:43;;;;;;;32.70;22.60;;;;;;;8.63;100.00;100572.14;178057;1259;59701;-84
2024/03/22 06:24:46;;;;;;;26.40;17.20;;;;;;;8.68;100.00;100575.36;177991;1259;46106;-81
2024/03/22 06:28:49;;;;;;;30.00;14.90;;;;;;;8.72;100.00;100577.05;177648;1259;46073;-83
2024/03/22 06:32:52;;;;;;;29.00;15.10;;;;;;;8.76;100.00;100576.27;178910;1256;46096;-83
2024/03/22 06:36:55;;;;;;;21.00;14.70;;;;;;;8.74;100.00;100572.52;178462;1259;46160;-83
2024/03/22 06:40:59;;;;;;;20.20;14.10;;;;;;;8.75;100.00;100565.70;179563;1259;59632;-84
2024/03/22 06:45:03;;;;;;;28.10;15.90;;;;;;;8.74;100.00;100562.79;178355;1257;45962;-82
2024/03/22 06:49:06;;;;;;;24.70;15.20;;;;;;;8.84;100.00;100550.59;178464;1255;46092;-83
2024/03/22 06:53:10;;;;;;;23.70;15.50;;;;;;;9.02;100.00;100541.55;180586;1256;44104;-81
2024/03/22 06:57:13;;;;;;;20.50;15.00;;;;;;;9.22;100.00;100540.11;178462;1259;46113;-83
2024/03/22 07:01:16;;;;;;;20.20;13.80;;;;;;;9.42;100.00;100538.19;178837;1256;58329;-83
2024/03/22 07:05:19;;;;;;;21.20;13.00;;;;;;;9.58;100.00;100535.23;178697;1256;46137;-83
2024/03/22 07:09:21;;;;;;;19.00;14.60;;;;;;;9.71;100.00;100535.81;179123;1256;44429;-84
2024/03/22 07:13:24;;;;;;;23.20;15.60;;;;;;;9.95;100.00;100534.81;177433;1259;46125;-83
2024/03/22 07:17:28;;;;;;;25.50;15.80;;;;;;;10.18;100.00;100527.38;177914;1257;44717;-83
2024/03/22 07:21:31;;;;;;;23.70;17.30;;;;;;;10.40;100.00;100525.55;178528;1257;59958;-83
2024/03/22 07:25:33;;;;;;;22.90;16.00;;;;;;;10.73;100.00;100522.30;178680;1256;46233;-84
2024/03/22 07:29:36;;;;;;;24.40;15.50;;;;;;;10.95;100.00;100518.85;178077;1259;46150;-84
2024/03/22 07:33:40;;;;;;;20.80;15.00;;;;;;;11.03;100.00;100519.62;177729;1257;46077;-83
2024/03/22 07:37:42;;;;;;;21.40;14.40;;;;;;;11.12;100.00;100515.17;178826;1259;46039;-84
2024/03/22 07:41:45;;;;;;;23.10;14.30;;;;;;;11.28;100.00;100513.06;178475;1259;59632;-83
2024/03/22 07:45:48;;;;;;;21.30;15.10;;;;;;;11.33;100.00;100505.49;178490;1256;46004;-83
2024/03/22 07:49:51;;;;;;;17.20;12.80;;;;;;;11.39;100.00;100489.61;177983;1257;45982;-83
2024/03/22 07:53:54;;;;;;;24.90;16.40;;;;;;;11.36;100.00;100477.56;179991;1256;43885;-83
2024/03/22 07:57:57;;;;;;;19.30;12.50;;;;;;;11.39;100.00;100477.52;179072;1256;46212;-83
2024/03/22 08:02:00;;;;;;;20.20;15.10;;;;;;;11.47;100.00;100470.31;178255;1256;59407;-83
2024/03/22 08:06:03;;;;;;;19.10;12.10;;;;;;;11.68;99.37;100463.64;178082;1259;46186;-83
2024/03/22 08:10:06;;;;;;;21.10;13.50;;;;;;;11.88;99.80;100460.34;178901;1257;46049;-83
2024/03/22 08:14:09;;;;;;;21.80;14.10;;;;;;;12.22;96.36;100458.59;178691;1256;46115;-83
2024/03/22 08:18:13;;;;;;;20.80;13.40;;;;;;;12.42;93.84;100460.72;178549;1257;44358;-83
2024/03/22 08:22:15;;;;;;;21.60;13.20;;;;;;;12.54;93.59;100452.92;177862;1256;59659;-83
2024/03/22 08:26:18;;;;;;;18.00;12.00;;;;;;;12.59;91.58;100448.79;177939;1256;46522;-84
2024/03/22 08:30:24;;;;;;;19.10;14.40;;;;;;;12.59;89.78;100443.06;179358;1257;46003;-83
2024/03/22 08:34:28;;;;;;;;;;;;;;;12.68;92.23;100438.95;177758;1257;46230;-82
2024/03/22 08:38:31;;;;;;;25.40;15.50;;;;;;;12.81;92.63;100439.27;178750;1259;45792;-83
2024/03/22 08:42:34;;;;;;;27.80;15.80;;;;;;;12.83;90.09;100434.08;178829;1256;58412;-82
2024/03/22 08:46:37;;;;;;;20.30;13.80;;;;;;;12.84;91.09;100429.00;178600;1255;45957;-83
2024/03/22 08:50:45;;;;;;;22.00;13.30;;;;;;;12.77;89.64;100425.86;178717;1259;44099;-81
2024/03/22 08:54:48;;;;;;;19.00;12.50;;;;;;;12.81;89.11;100418.77;178018;1259;45937;-83
2024/03/22 08:58:51;;;;;;;23.00;12.30;;;;;;;12.69;86.34;100417.45;178717;1258;44173;-82
2024/03/22 09:02:54;;;;;;;17.40;11.90;;;;;;;12.70;90.63;100416.52;179605;1257;59629;-83
2024/03/22 09:06:58;;;;;;;17.60;12.00;;;;;;;12.73;91.48;100412.81;177986;1259;44806;-84
2024/03/22 09:11:02;;;;;;;20.80;11.90;;;;;;;12.75;90.72;100404.70;178456;1257;46080;-84
2024/03/22 09:15:05;;;;;;;16.10;11.80;;;;;;;12.81;90.29;100397.71;177748;1259;44794;-83
2024/03/22 09:19:08;;;;;;;17.50;10.60;;;;;;;12.82;89.42;100392.34;178199;1259;46008;-83
2024/03/22 09:23:13;;;;;;;18.50;10.80;;;;;;;12.88;89.51;100391.66;178041;1259;60183;-84
2024/03/22 09:27:16;;;;;;;15.70;11.20;;;;;;;12.89;89.30;100383.55;177570;1257;46219;-84
2024/03/22 09:31:19;;;;;;;13.60;10.00;;;;;;;12.98;89.65;100380.95;177680;1259;46045;-84
2024/03/22 09:35:22;;;;;;;16.00;11.90;;;;;;;13.09;87.38;100369.97;178523;1257;46122;-83
2024/03/22 09:39:27;;;;;;;18.40;11.60;;;;;;;13.05;87.16;100364.48;178000;1257;46033;-84
2024/03/22 09:43:32;;;;;;;36.30;12.80;;;;;;;13.01;87.73;100361.09;178276;1263;59657;-84
2024/03/22 09:47:37;;;;;;;15.50;10.40;;;;;;;12.97;86.47;100355.92;178511;1255;46037;-84
2024/03/22 09:51:41;;;;;;;11.00;9.00;;;;;;;12.99;84.73;100350.57;178280;1259;46093;-83
2024/03/22 09:55:48;;;;;;;14.60;10.50;;;;;;;12.99;84.31;100352.86;178045;1257;46462;-84
2024/03/22 09:59:51;;;;;;;13.30;9.70;;;;;;;13.08;83.70;100352.81;177748;1255;46087;-83
2024/03/22 10:03:55;;;;;;;24.20;11.30;;;;;;;13.20;85.60;100342.25;178492;1257;57194;-81
2024/03/22 10:07:58;;;;;;;12.90;8.60;;;;;;;13.33;85.52;100331.86;179096;1257;44157;-84
2024/03/22 10:12:00;;;;;;;12.90;8.20;;;;;;;13.42;84.20;100324.80;178420;1256;46003;-82
2024/03/22 10:16:07;;;;;;;13.60;9.40;;;;;;;13.58;85.05;100320.82;178364;1260;45993;-83
2024/03/22 10:20:13;;;;;;;11.40;8.90;;;;;;;13.74;82.19;100315.80;178340;1259;45943;-83
2024/03/22 10:24:16;;;;;;;14.20;9.40;;;;;;;13.88;80.47;100311.45;179076;1258;58837;-84
2024/03/22 10:28:19;;;;;;;15.70;9.60;;;;;;;14.06;81.38;100307.94;178355;1260;46025;-83
2024/03/22 10:32:23;;;;;;;15.30;9.60;;;;;;;14.31;80.73;100300.89;179503;1257;46059;-84
2024/03/22 10:36:27;;;;;;;11.50;9.40;;;;;;;14.62;80.09;100296.05;178285;1258;46003;-83
2024/03/22 10:40:31;;;;;;;12.10;8.90;;;;;;;14.96;80.75;100301.17;178072;1259;46097;-82
2024/03/22 10:44:34;;;;;;;11.50;7.70;;;;;;;15.29;78.17;100299.15;177998;1256;58325;-84
2024/03/22 10:48:39;;;;;;;20.60;8.70;;;;;;;15.54;74.71;100293.89;179372;1256;46044;-84
2024/03/22 10:52:42;;;;;;;10.20;6.00;;;;;;;15.59;70.00;100284.70;178084;1257;46375;-84
2024/03/22 10:56:47;;;;;;;10.90;6.50;;;;;;;15.48;67.84;100282.56;179497;1256;45938;-84
2024/03/22 11:00:55;;;;;;;11.10;6.60;;;;;;;15.48;70.61;100277.91;178037;1257;45959;-84
2024/03/22 11:04:59;;;;;;;7.00;5.80;;;;;;;15.59;69.76;100275.19;178155;1256;58595;-83
2024/03/22 11:09:05;;;;;;;7.50;5.40;;;;;;;15.66;68.19;100260.55;178329;1261;46107;-84
2024/03/22 11:13:09;;;;;;;7.90;4.70;;;;;;;15.71;67.74;100254.13;179856;1257;46173;-84
2024/03/22 11:17:11;;;;;;;6.10;4.50;;;;;;;15.66;65.29;100243.91;178194;1257;46016;-84
2024/03/22 11:21:15;;;;;;;11.50;3.50;;;;;;;15.62;66.64;100238.94;176526;1257;2545587;-83
2024/03/22 11:25:19;;;;;;;8.30;3.70;;;;;;;15.59;64.24;100235.91;178507;1257;60118;-83
2024/03/22 11:29:22;;;;;;;4.00;3.40;;;;;;;15.63;64.69;100221.55;178256;1256;45994;-84
2024/03/22 11:33:26;;;;;;;5.40;2.90;;;;;;;15.66;65.69;100216.57;179186;1256;46003;-84
2024/03/22 11:37:30;;;;;;;7.50;2.70;;;;;;;15.67;63.70;100210.48;179703;1257;46451;-83
2024/03/22 11:41:34;;;;;;;41.30;6.80;;;;;;;15.70;62.33;100198.45;178396;1256;46198;-83
2024/03/22 11:45:37;;;;;;;4.00;3.60;;;;;;;15.66;63.84;100194.23;179210;1257;58320;-83
2024/03/22 11:49:40;;;;;;;6.60;4.30;;;;;;;15.61;65.77;100189.00;178543;1257;45985;-84
2024/03/22 11:53:49;;;;;;;8.40;4.40;;;;;;;15.68;66.13;100187.15;179050;1257;46112;-84
2024/03/22 11:57:52;;;;;;;6.00;3.90;;;;;;;15.69;68.46;100175.43;178905;1260;46096;-84
2024/03/22 12:01:55;;;;;;;7.80;4.40;;;;;;;15.63;66.39;100164.81;178786;1257;46179;-84
2024/03/22 12:05:58;;;;;;;5.50;3.80;;;;;;;15.55;69.20;100159.95;178645;1258;59340;-83
2024/03/22 12:10:01;;;;;;;5.90;4.10;;;;;;;15.45;67.67;100150.27;178402;1256;46055;-83
2024/03/22 12:14:04;;;;;;;6.20;4.40;;;;;;;15.35;67.59;100145.42;178035;1256;46105;-83
2024/03/22 12:18:07;;;;;;;6.40;4.10;;;;;;;15.24;66.75;100147.09;178226;1260;46189;-84
2024/03/22 12:22:10;;;;;;;7.70;4.40;;;;;;;15.23;68.44;100141.83;178744;1260;46006;-83
2024/03/22 12:26:13;;;;;;;14.90;5.40;;;;;;;15.34;67.84;100131.75;178567;1257;58452;-84
2024/03/22 12:30:16;;;;;;;8.00;5.40;;;;;;;15.39;66.31;100124.55;179086;1255;44387;-83
2024/03/22 12:34:19;;;;;;;10.70;5.70;;;;;;;15.45;66.29;100121.29;178121;1255;46056;-84
2024/03/22 12:38:22;;;;;;;8.60;5.30;;;;;;;15.47;67.80;100111.98;177612;1257;46207;-84
2024/03/22 12:42:25;;;;;;;8.40;7.40;;;;;;;15.49;68.75;100110.75;179089;1256;46316;-84
2024/03/22 12:46:28;;;;;;;9.30;5.30;;;;;;;15.46;66.66;100100.25;178379;1256;58322;-84
2024/03/22 12:50:31;;;;;;;27.10;7.90;;;;;;;15.46;67.88;100095.61;178683;1256;46005;-83
2024/03/22 12:54:34;;;;;;;6.90;5.60;;;;;;;15.53;69.73;100097.45;178972;1261;46234;-83
2024/03/22 12:58:37;;;;;;;8.40;6.00;;;;;;;15.57;68.33;100093.63;178060;1256;46006;-83
2024/03/22 13:02:40;;;;;;;10.20;7.10;;;;;;;15.53;69.10;100092.03;178528;1257;45985;-83
2024/03/22 13:06:43;;;;;;;6.60;5.80;;;;;;;15.57;70.95;100089.52;178398;1256;60615;-83
2024/03/22 13:10:47;;;;;;;12.00;6.70;;;;;;;15.57;68.38;100081.77;178151;1256;46080;-83
2024/03/22 13:14:51;;;;;;;9.40;4.80;;;;;;;15.61;68.47;100074.92;178964;1256;46221;-81
2024/03/22 13:19:14;;;;;;;8.70;6.10;;;;;;;15.65;67.96;100071.48;178744;1256;46064;-83
2024/03/22 13:23:18;;;;;;;10.50;6.70;;;;;;;15.71;67.68;100067.99;178950;1257;44165;-83
2024/03/22 13:27:22;;;;;;;11.00;5.80;;;;;;;15.76;69.24;100065.52;178109;1257;59672;-81
2024/03/22 13:31:25;;;;;;;8.00;5.40;;;;;;;15.77;72.19;100064.91;178402;1259;45119;-82
2024/03/22 13:35:34;;;;;;;8.20;5.80;;;;;;;15.70;73.43;100055.77;178387;1256;46123;-82
2024/03/22 13:39:37;;;;;;;5.80;4.90;;;;;;;15.68;73.45;100048.69;178405;1257;46055;-83
2024/03/22 13:43:42;;;;;;;10.40;5.40;;;;;;;15.72;72.55;100034.70;178641;1256;46282;-82
2024/03/22 13:47:46;;;;;;;24.50;7.10;;;;;;;15.85;74.39;100023.21;178684;1256;59699;-82
2024/03/22 13:51:49;;;;;;;11.60;5.30;;;;;;;15.94;70.24;100011.98;178415;1257;46114;-83
2024/03/22 13:55:55;;;;;;;6.50;5.40;;;;;;;15.99;69.69;100007.66;178750;1256;45987;-82
2024/03/22 13:59:59;;;;;;;10.10;6.60;;;;;;;15.97;69.55;99999.78;179231;1256;46120;-81
2024/03/22 14:04:03;;;;;;;8.10;5.30;;;;;;;16.00;70.00;99991.63;179196;1256;46015;-82
2024/03/22 14:08:06;;;;;;;8.60;4.60;;;;;;;16.04;67.40;99981.02;178266;1256;59468;-82
2024/03/22 14:12:09;;;;;;;7.40;5.50;;;;;;;16.03;68.62;99977.91;178445;1256;46463;-82
2024/03/22 14:16:12;;;;;;;11.20;5.40;;;;;;;16.05;69.40;99975.20;178632;1256;45999;-83
2024/03/22 14:20:15;;;;;;;6.50;4.70;;;;;;;16.04;70.61;99974.75;178435;1256;46010;-84
2024/03/22 14:24:18;;;;;;;10.10;5.70;;;;;;;16.04;70.52;99968.66;179177;1256;46142;-83
2024/03/22 14:28:21;;;;;;;9.90;4.80;;;;;;;15.94;70.90;99961.77;178574;1256;59876;-81
2024/03/22 14:32:24;;;;;;;6.40;4.50;;;;;;;15.84;70.86;99949.16;179157;1255;46033;-82
2024/03/22 14:36:27;;;;;;;29.10;8.30;;;;;;;15.73;69.82;99943.56;178681;1256;45917;-82
2024/03/22 14:40:36;;;;;;;9.00;5.40;;;;;;;15.64;69.34;99945.41;178325;1257;46033;-83
2024/03/22 14:44:40;;;;;;;9.00;4.60;;;;;;;15.56;69.89;99939.44;178925;1256;46148;-82
2024/03/22 14:48:43;;;;;;;8.80;4.50;;;;;;;15.52;70.24;99931.33;178355;1257;58052;-83
2024/03/22 14:52:48;;;;;;;11.30;5.30;;;;;;;15.48;70.14;99930.52;178992;1256;45975;-82
2024/03/22 14:56:53;;;;;;;7.80;4.60;;;;;;;15.43;69.15;99923.21;178769;1255;45956;-83
2024/03/22 15:00:59;;;;;;;5.70;4.30;;;;;;;15.40;69.26;99918.72;178221;1256;46000;-82
2024/03/22 15:05:04;;;;;;;;;;;;;;;15.36;70.08;99915.77;178949;1256;46182;-83
2024/03/22 15:09:09;;;;;;;12.80;7.80;;;;;;;15.31;70.28;99905.17;178704;1256;59474;-82
2024/03/22 15:13:15;;;;;;;12.60;8.60;;;;;;;15.27;68.81;99898.25;178520;1257;46224;-83
2024/03/22 15:17:22;;;;;;;13.70;10.20;;;;;;;15.19;69.96;99893.99;178795;1256;46230;-83
2024/03/22 15:21:25;;;;;;;16.20;12.20;;;;;;;15.11;70.09;99889.11;178552;1256;46032;-83
2024/03/22 15:25:28;;;;;;;73.90;51.90;;;;;;;15.04;70.94;99879.98;178020;1255;46003;-82
2024/03/22 15:29:31;;;;;;;21.30;16.50;;;;;;;14.99;69.93;99878.75;178217;1255;59605;-85
2024/03/22 15:33:34;;;;;;;11.80;8.10;;;;;;;15.00;70.35;99879.23;179599;1259;46170;-81
2024/03/22 15:37:38;;;;;;;8.50;6.50;;;;;;;14.99;69.57;99879.13;178733;1256;44525;-81
2024/03/22 15:41:41;;;;;;;10.30;5.80;;;;;;;15.03;72.61;99880.34;177846;1257;46139;-81
2024/03/22 15:45:43;;;;;;;9.70;4.30;;;;;;;15.06;73.69;99875.89;177697;1256;46042;-81
2024/03/22 15:49:46;;;;;;;6.30;4.00;;;;;;;15.04;73.68;99868.05;179069;1256;60666;-81
2024/03/22 15:53:50;;;;;;;5.00;3.60;;;;;;;15.04;73.82;99863.93;178148;1256;46177;-80
2024/03/22 15:57:55;;;;;;;6.60;3.80;;;;;;;15.05;73.32;99859.18;179447;1256;46098;-81
2024/03/22 16:01:58;;;;;;;6.40;3.40;;;;;;;15.05;71.82;99854.42;178971;1256;46121;-81
2024/03/22 16:06:17;;;;;;;16.40;4.80;;;;;;;15.04;72.68;99851.18;178400;1255;46134;-81
2024/03/22 16:10:20;;;;;;;4.60;3.70;;;;;;;15.05;74.36;99851.91;176992;1259;58333;-80
2024/03/22 16:14:23;;;;;;;4.60;3.60;;;;;;;15.02;75.46;99848.13;178501;1255;46220;-81
2024/03/22 16:18:26;;;;;;;7.20;3.90;;;;;;;14.96;73.74;99842.46;178237;1259;46233;-81
2024/03/22 16:22:29;;;;;;;10.70;4.80;;;;;;;14.89;73.76;99837.36;178597;1257;44274;-81
2024/03/22 16:26:32;;;;;;;7.00;4.20;;;;;;;14.82;74.85;99836.25;179521;1255;46119;-81
2024/03/22 16:30:35;;;;;;;17.60;13.70;;;;;;;14.61;77.85;99837.08;177784;1257;59541;-81
2024/03/22 16:34:39;;;;;;;21.80;16.50;;;;;;;14.40;73.88;99831.73;178159;1256;46057;-81
2024/03/22 16:38:42;;;;;;;25.30;16.50;;;;;;;14.32;71.63;99832.73;177073;1256;45997;-82
2024/03/22 16:42:46;;;;;;;17.10;13.30;;;;;;;14.30;70.90;99825.67;178219;1256;46109;-83
2024/03/22 16:46:49;;;;;;;25.30;11.70;;;;;;;14.29;70.72;99822.72;178019;1256;44801;-82
2024/03/22 16:50:52;;;;;;;65.40;14.60;;;;;;;14.29;71.79;99823.63;178000;1255;58308;-82
2024/03/22 16:54:55;;;;;;;13.30;8.50;;;;;;;14.26;70.34;99818.80;178547;1255;46249;-82
2024/03/22 16:58:58;;;;;;;8.90;5.40;;;;;;;14.23;71.18;99820.19;178954;1256;43915;-82
2024/03/22 17:03:01;;;;;;;5.70;5.10;;;;;;;14.19;71.73;99817.54;178322;1255;45995;-82
2024/03/22 17:07:03;;;;;;;8.60;6.10;;;;;;;14.17;72.48;99817.00;177934;1256;46430;-82
2024/03/22 17:11:06;;;;;;;9.60;6.00;;;;;;;14.17;71.60;99808.14;178155;1256;59352;-82
2024/03/22 17:15:09;;;;;;;8.50;5.40;;;;;;;14.16;71.62;99806.67;178509;1255;46130;-83
2024/03/22 17:19:12;;;;;;;13.70;8.90;;;;;;;14.09;71.78;99804.46;179269;1255;46428;-82
2024/03/22 17:23:15;;;;;;;12.20;6.90;;;;;;;14.06;72.55;99803.57;178294;1256;46115;-82
2024/03/22 17:27:18;;;;;;;13.00;8.80;;;;;;;13.99;72.83;99803.85;178313;1256;46058;-82
2024/03/22 17:31:22;;;;;;;21.00;15.30;;;;;;;13.92;74.63;99798.42;178846;1256;58179;-82
2024/03/22 17:35:39;;;;;;;20.30;13.30;;;;;;;13.88;78.01;99798.84;177906;1256;46162;-82
2024/03/22 17:39:42;;;;;;;21.10;14.70;;;;;;;13.82;79.69;99799.02;179036;1256;44137;-83
2024/03/22 17:43:54;;;;;;;24.90;14.10;;;;;;;13.78;81.27;99795.05;177827;1256;46252;-82
2024/03/22 17:47:57;;;;;;;13.70;10.20;;;;;;;13.69;81.80;99790.89;177620;1256;46139;-83
2024/03/22 17:52:00;;;;;;;16.90;11.70;;;;;;;13.61;82.13;99786.20;178627;1256;58329;-84
2024/03/22 17:56:03;;;;;;;14.20;10.30;;;;;;;13.51;83.11;99786.20;178261;1256;46370;-83
2024/03/22 18:00:06;;;;;;;16.70;10.10;;;;;;;13.44;83.29;99788.48;178167;1256;46008;-83
2024/03/22 18:04:11;;;;;;;12.00;8.00;;;;;;;13.37;84.47;99786.48;177989;1256;44145;-84
2024/03/22 18:08:14;;;;;;;14.00;9.30;;;;;;;13.28;84.92;99781.09;177926;1256;46107;-83
2024/03/22 18:12:18;;;;;;;18.00;9.50;;;;;;;13.20;85.83;99785.30;178231;1257;58370;-83
2024/03/22 18:16:21;;;;;;;11.90;9.40;;;;;;;13.12;86.73;99786.80;178336;1256;46105;-83
2024/03/22 18:20:24;;;;;;;11.80;7.80;;;;;;;13.07;87.79;99786.23;178915;1255;46139;-83
2024/03/22 18:24:27;;;;;;;12.20;8.00;;;;;;;13.04;88.31;99786.04;178030;1256;46003;-83